createdAt,value
2023-04-27T00:00:39.208Z,100229.50
2023-04-27T00:03:09.024Z,100224.00
2023-04-27T00:05:39.543Z,100230.47
2023-04-27T00:08:08.288Z,100234.13
2023-04-27T00:10:36.534Z,100237.78
2023-04-27T00:13:04.904Z,100218.47
2023-04-27T00:15:33.133Z,100251.41
2023-04-27T00:18:01.750Z,100238.97
2023-04-27T00:20:31.197Z,100240.94
2023-04-27T00:22:59.276Z,100243.59
2023-04-27T00:25:27.652Z,100250.78
2023-04-27T00:27:55.707Z,100247.38
2023-04-27T00:30:23.771Z,100248.50
2023-04-27T00:32:51.763Z,100247.53
2023-04-27T00:35:19.997Z,100242.28
2023-04-27T00:37:49.437Z,100248.50
2023-04-27T00:40:17.331Z,100244.13
2023-04-27T00:42:45.650Z,100245.94
2023-04-27T00:45:14.490Z,100243.28
2023-04-27T00:47:43.201Z,100252.16
2023-04-27T00:50:12.131Z,100250.44
2023-04-27T00:52:40.824Z,100243.38
2023-04-27T00:55:11.755Z,100237.19
2023-04-27T00:57:41.596Z,100248.88
2023-04-27T01:00:10.863Z,100244.38
2023-04-27T01:02:39.347Z,100240.69
2023-04-27T01:05:08.679Z,100241.69
2023-04-27T01:07:38.645Z,100235.34
2023-04-27T01:10:07.764Z,100244.38
2023-04-27T01:12:38.299Z,100250.59
2023-04-27T01:15:08.440Z,100246.06
2023-04-27T01:17:36.470Z,100242.56
2023-04-27T01:20:09.644Z,100225.50
2023-04-27T01:22:38.209Z,100232.34
2023-04-27T01:25:08.767Z,100232.34
2023-04-27T01:27:36.887Z,100240.84
2023-04-27T01:30:06.428Z,100245.34
2023-04-27T01:32:34.586Z,100240.94
2023-04-27T01:35:03.060Z,100248.97
2023-04-27T01:37:31.114Z,100248.16
2023-04-27T01:39:59.178Z,100246.44
2023-04-27T01:42:28.591Z,100241.09
2023-04-27T01:44:56.716Z,100248.25
2023-04-27T01:47:24.814Z,100245.72
2023-04-27T01:49:52.881Z,100242.19
2023-04-27T01:52:21.088Z,100247.66
2023-04-27T01:54:49.148Z,100256.91
2023-04-27T01:57:17.687Z,100246.91
2023-04-27T01:59:47.134Z,100248.88
2023-04-27T02:02:15.496Z,100236.31
2023-04-27T02:04:45.240Z,100252.50
2023-04-27T02:07:13.653Z,100258.81
2023-04-27T02:09:41.868Z,100257.97
2023-04-27T02:12:12.012Z,100253.00
2023-04-27T02:14:40.018Z,100256.53
2023-04-27T02:17:09.426Z,100252.75
2023-04-27T02:19:37.494Z,100256.38
2023-04-27T02:22:06.811Z,100266.22
2023-04-27T02:24:36.582Z,100226.00
2023-04-27T02:27:04.942Z,100268.19
2023-04-27T02:29:33.496Z,100268.03
2023-04-27T02:32:02.143Z,100270.72
2023-04-27T02:34:31.473Z,100271.59
2023-04-27T02:36:59.990Z,100268.03
2023-04-27T02:39:27.933Z,100269.28
2023-04-27T02:41:56.016Z,100270.88
2023-04-27T02:44:24.286Z,100273.53
2023-04-27T02:46:52.532Z,100269.03
2023-04-27T02:49:20.959Z,100268.19
2023-04-27T02:51:50.320Z,100268.31
2023-04-27T02:54:18.331Z,100272.81
2023-04-27T02:56:46.316Z,100274.63
2023-04-27T02:59:14.472Z,100268.78
2023-04-27T03:01:42.845Z,100269.53
2023-04-27T03:04:14.204Z,100276.59
2023-04-27T03:06:42.393Z,100276.69
2023-04-27T03:09:12.873Z,100277.44
2023-04-27T03:11:41.269Z,100281.81
2023-04-27T03:14:09.254Z,100281.81
2023-04-27T03:16:37.293Z,100279.13
2023-04-27T03:19:06.195Z,100280.13
2023-04-27T03:21:34.514Z,100288.16
2023-04-27T03:24:02.533Z,100288.16
2023-04-27T03:26:31.940Z,100282.78
2023-04-27T03:29:00.059Z,100292.63
2023-04-27T03:31:30.136Z,100288.25
2023-04-27T03:33:58.085Z,100291.78
2023-04-27T03:36:27.000Z,100282.41
2023-04-27T03:38:55.035Z,100290.91
2023-04-27T03:41:23.292Z,100289.97
2023-04-27T03:43:53.515Z,100297.13
2023-04-27T03:46:21.778Z,100300.75
2023-04-27T03:48:50.425Z,100298.94
2023-04-27T03:51:18.627Z,100304.44
2023-04-27T03:53:47.932Z,100305.28
2023-04-27T03:56:16.344Z,100304.44
2023-04-27T03:58:44.382Z,100306.13
2023-04-27T04:01:19.872Z,100304.31
2023-04-27T04:03:48.679Z,100310.38
2023-04-27T04:06:16.853Z,100312.09
2023-04-27T04:08:46.003Z,100311.84
2023-04-27T04:11:14.334Z,100312.56
2023-04-27T04:13:42.375Z,100317.34
2023-04-27T04:16:11.072Z,100318.69
2023-04-27T04:18:42.004Z,100313.72
2023-04-27T04:21:11.208Z,100318.56
2023-04-27T04:23:41.217Z,100317.09
2023-04-27T04:26:10.369Z,100311.47
2023-04-27T04:28:38.542Z,100321.47
2023-04-27T04:31:08.366Z,100317.44
2023-04-27T04:33:36.587Z,100320.47
2023-04-27T04:36:06.845Z,100284.22
2023-04-27T04:38:35.430Z,100321.41
2023-04-27T04:41:03.580Z,100320.91
2023-04-27T04:43:34.315Z,100321.53
2023-04-27T04:46:06.468Z,100332.72
2023-04-27T04:48:35.572Z,100329.66
2023-04-27T04:51:05.665Z,100334.66
2023-04-27T04:53:35.663Z,100347.69
2023-04-27T04:56:10.213Z,100328.41
2023-04-27T04:58:38.204Z,100341.56
2023-04-27T05:01:06.826Z,100341.31
2023-04-27T05:03:35.251Z,100340.06
2023-04-27T05:06:03.387Z,100343.19
2023-04-27T05:08:31.328Z,100329.69
2023-04-27T05:11:00.736Z,100338.06
2023-04-27T05:13:29.667Z,100338.78
2023-04-27T05:15:57.860Z,100340.09
2023-04-27T05:18:26.039Z,100342.66
2023-04-27T05:20:54.159Z,100342.97
2023-04-27T05:23:22.087Z,100340.03
2023-04-27T05:25:50.070Z,100345.00
2023-04-27T05:28:19.552Z,100333.56
2023-04-27T05:30:47.718Z,100345.19
2023-04-27T05:33:15.738Z,100347.63
2023-04-27T05:35:43.864Z,100346.50
2023-04-27T05:38:12.023Z,100340.03
2023-04-27T05:40:39.983Z,100346.03
2023-04-27T05:43:08.172Z,100341.38
2023-04-27T05:45:41.216Z,100343.53
2023-04-27T05:48:09.271Z,100345.22
2023-04-27T05:50:37.376Z,100346.78
2023-04-27T05:53:06.371Z,100345.81
2023-04-27T05:55:34.526Z,100352.50
2023-04-27T05:58:08.664Z,100354.06
2023-04-27T06:00:38.470Z,100352.09
2023-04-27T06:03:08.144Z,100358.06
2023-04-27T06:05:36.374Z,100357.06
2023-04-27T06:08:04.584Z,100354.13
2023-04-27T06:10:32.759Z,100349.59
2023-04-27T06:13:01.164Z,100359.81
2023-04-27T06:15:29.379Z,100358.81
2023-04-27T06:17:57.561Z,100349.63
2023-04-27T06:20:27.145Z,100356.56
2023-04-27T06:22:55.125Z,100354.63
2023-04-27T06:25:26.675Z,100356.19
2023-04-27T06:27:55.185Z,100354.22
2023-04-27T06:30:23.651Z,100364.69
2023-04-27T06:32:52.626Z,100358.19
2023-04-27T06:35:21.462Z,100366.00
2023-04-27T06:37:51.338Z,100360.47
2023-04-27T06:40:19.622Z,100345.03
2023-04-27T06:42:47.672Z,100360.06
2023-04-27T06:45:15.762Z,100368.00
2023-04-27T06:47:43.788Z,100374.94
2023-04-27T06:50:11.961Z,100371.13
2023-04-27T06:52:39.904Z,100365.59
2023-04-27T06:55:09.991Z,100363.63
2023-04-27T06:57:38.004Z,100373.16
2023-04-27T07:00:07.092Z,100379.97
2023-04-27T07:02:35.351Z,100369.94
2023-04-27T07:05:03.580Z,100376.59
2023-04-27T07:07:32.036Z,100384.25
2023-04-27T07:10:00.217Z,100379.31
2023-04-27T07:12:29.937Z,100380.72
2023-04-27T07:14:58.092Z,100375.94
2023-04-27T07:17:26.265Z,100372.84
2023-04-27T07:19:54.552Z,100373.28
2023-04-27T07:22:22.773Z,100378.53
2023-04-27T07:24:51.204Z,100380.09
2023-04-27T07:27:20.424Z,100393.38
2023-04-27T07:29:49.869Z,100380.78
2023-04-27T07:32:17.961Z,100382.19
2023-04-27T07:34:53.660Z,100378.53
2023-04-27T07:37:22.899Z,100381.94
2023-04-27T07:39:53.148Z,100349.34
2023-04-27T07:42:23.599Z,100378.81
2023-04-27T07:44:54.223Z,100391.00
2023-04-27T07:47:22.266Z,100380.53
2023-04-27T07:49:50.286Z,100391.72
2023-04-27T07:52:18.543Z,100388.03
2023-04-27T07:54:46.981Z,100382.50
2023-04-27T07:57:15.131Z,100386.06
2023-04-27T07:59:43.313Z,100398.53
2023-04-27T08:04:46.009Z,100400.09
2023-04-27T08:07:14.960Z,100387.63
2023-04-27T08:09:43.413Z,100392.72
2023-04-27T08:12:11.789Z,100409.59
2023-04-27T08:14:40.160Z,100405.94
2023-04-27T08:17:08.162Z,100414.00
2023-04-27T08:19:38.510Z,100404.91
2023-04-27T08:22:06.670Z,100396.56
2023-04-27T08:24:34.871Z,100397.69
2023-04-27T08:27:03.405Z,100406.34
2023-04-27T08:29:31.797Z,100401.94
2023-04-27T08:32:01.869Z,100384.94
2023-04-27T08:34:30.900Z,100410.03
2023-04-27T08:37:00.660Z,100413.72
2023-04-27T08:39:29.046Z,100402.38
2023-04-27T08:41:57.522Z,100422.06
2023-04-27T08:44:25.714Z,100412.41
2023-04-27T08:46:53.980Z,100402.19
2023-04-27T08:49:22.431Z,100407.56
2023-04-27T08:51:50.664Z,100405.03
2023-04-27T08:54:20.790Z,100412.38
2023-04-27T08:56:48.944Z,100416.19
2023-04-27T08:59:17.878Z,100406.56
2023-04-27T09:01:48.631Z,100403.44
2023-04-27T09:04:18.692Z,100403.16
2023-04-27T09:06:47.265Z,100414.88
2023-04-27T09:09:25.243Z,100378.72
2023-04-27T09:11:53.492Z,100430.84
2023-04-27T09:14:22.812Z,100420.34
2023-04-27T09:16:57.739Z,100417.13
2023-04-27T09:19:26.793Z,100423.72
2023-04-27T09:22:04.889Z,100422.06
2023-04-27T09:24:34.726Z,100416.94
2023-04-27T09:27:03.210Z,100417.06
2023-04-27T09:29:35.099Z,100422.31
2023-04-27T09:32:03.702Z,100420.75
2023-04-27T09:34:41.931Z,100421.72
2023-04-27T09:37:11.410Z,100421.88
2023-04-27T09:39:42.632Z,100428.22
2023-04-27T09:42:11.967Z,100422.84
2023-04-27T09:44:39.988Z,100421.28
2023-04-27T09:47:09.108Z,100422.13
2023-04-27T09:49:37.202Z,100423.97
2023-04-27T09:52:05.365Z,100427.63
2023-04-27T09:54:35.776Z,100425.09
2023-04-27T09:57:18.879Z,100438.53
2023-04-27T10:00:01.706Z,100434.53
2023-04-27T10:02:52.561Z,100447.00
2023-04-27T10:06:08.884Z,100452.78
2023-04-27T10:08:37.520Z,100440.81
2023-04-27T10:11:15.353Z,100453.38
2023-04-27T10:13:54.798Z,100456.22
2023-04-27T10:16:23.340Z,100465.53
2023-04-27T10:18:56.760Z,100480.78
2023-04-27T10:21:24.792Z,100474.97
2023-04-27T10:23:54.456Z,100466.47
2023-04-27T10:26:26.213Z,100474.22
2023-04-27T10:29:00.118Z,100469.00
2023-04-27T10:31:31.333Z,100471.84
2023-04-27T10:34:10.416Z,100474.53
2023-04-27T10:36:40.365Z,100475.50
2023-04-27T10:39:18.728Z,100475.88
2023-04-27T10:41:55.009Z,100481.00
2023-04-27T10:44:29.072Z,100482.94
2023-04-27T10:46:59.773Z,100472.50
2023-04-27T10:49:29.017Z,100477.00
2023-04-27T10:51:59.871Z,100469.91
2023-04-27T10:54:29.595Z,100467.25
2023-04-27T10:57:03.920Z,100472.59
2023-04-27T10:59:33.857Z,100477.13
2023-04-27T11:02:02.154Z,100480.81
2023-04-27T11:04:40.107Z,100482.50
2023-04-27T11:07:10.236Z,100491.66
2023-04-27T11:09:41.171Z,100486.28
2023-04-27T11:12:13.265Z,100498.03
2023-04-27T11:14:42.777Z,100497.16
2023-04-27T11:17:11.631Z,100499.84
2023-04-27T11:19:46.637Z,100505.34
2023-04-27T11:22:16.854Z,100488.06
2023-04-27T11:24:49.204Z,100502.38
2023-04-27T11:27:18.008Z,100498.13
2023-04-27T11:29:47.428Z,100490.63
2023-04-27T11:32:22.655Z,100510.44
2023-04-27T11:34:53.428Z,100503.50
2023-04-27T11:37:25.453Z,100508.00
2023-04-27T11:39:54.595Z,100514.38
2023-04-27T11:42:24.463Z,100520.63
2023-04-27T11:44:58.007Z,100527.66
2023-04-27T11:47:29.175Z,100536.84
2023-04-27T11:49:58.714Z,100526.75
2023-04-27T11:52:30.194Z,100545.03
2023-04-27T11:54:58.259Z,100558.44
2023-04-27T11:57:28.303Z,100551.88
2023-04-27T12:00:00.623Z,100562.81
2023-04-27T12:02:30.534Z,100558.84
2023-04-27T12:05:01.014Z,100554.47
2023-04-27T12:07:29.266Z,100526.00
2023-04-27T12:09:59.499Z,100572.59
2023-04-27T12:12:28.743Z,100579.03
2023-04-27T12:14:58.788Z,100581.78
2023-04-27T12:17:26.807Z,100595.41
2023-04-27T12:19:55.043Z,100595.63
2023-04-27T12:22:22.964Z,100607.72
2023-04-27T12:24:51.729Z,100599.00
2023-04-27T12:27:19.623Z,100569.19
2023-04-27T12:29:48.823Z,100569.38
2023-04-27T12:32:18.161Z,100565.16
2023-04-27T12:34:46.145Z,100549.75
2023-04-27T12:37:14.156Z,100553.75
2023-04-27T12:39:42.196Z,100562.13
2023-04-27T12:42:10.607Z,100568.94
2023-04-27T12:44:38.491Z,100573.19
2023-04-27T12:47:06.646Z,100569.41
2023-04-27T12:49:36.482Z,100585.25
2023-04-27T12:52:07.948Z,100553.34
2023-04-27T12:54:36.435Z,100588.41
2023-04-27T12:57:06.436Z,100588.13
2023-04-27T12:59:34.497Z,100583.47
2023-04-27T13:02:03.022Z,100585.19
2023-04-27T13:04:32.222Z,100581.47
2023-04-27T13:07:01.928Z,100574.53
2023-04-27T13:09:30.311Z,100590.94
2023-04-27T13:12:00.750Z,100584.59
2023-04-27T13:14:30.260Z,100578.34
2023-04-27T13:16:58.256Z,100579.22
2023-04-27T13:19:26.748Z,100581.75
2023-04-27T13:21:54.801Z,100579.91
2023-04-27T13:24:24.660Z,100579.81
2023-04-27T13:26:52.740Z,100563.50
2023-04-27T13:29:20.883Z,100585.88
2023-04-27T13:31:49.345Z,100583.31
2023-04-27T13:34:18.078Z,100587.88
2023-04-27T13:36:47.248Z,100602.28
2023-04-27T13:39:17.208Z,100601.56
2023-04-27T13:41:46.711Z,100604.13
2023-04-27T13:44:15.261Z,100605.25
2023-04-27T13:46:43.657Z,100617.97
2023-04-27T13:49:11.782Z,100626.16
2023-04-27T13:51:40.536Z,100600.16
2023-04-27T13:54:08.535Z,100640.72
2023-04-27T13:56:37.950Z,100656.84
2023-04-27T13:59:09.332Z,100654.44
2023-04-27T14:01:38.070Z,100666.03
2023-04-27T14:04:06.633Z,100660.78
2023-04-27T14:06:35.000Z,100667.16
2023-04-27T14:09:03.096Z,100664.00
2023-04-27T14:11:35.347Z,100670.13
2023-04-27T14:14:08.906Z,100665.72
2023-04-27T14:16:37.003Z,100664.16
2023-04-27T14:19:05.068Z,100658.16
2023-04-27T14:21:33.075Z,100649.13
2023-04-27T14:24:01.044Z,100650.50
2023-04-27T14:26:29.158Z,100647.22
2023-04-27T14:29:13.415Z,100655.63
2023-04-27T14:31:42.932Z,100652.06
2023-04-27T14:34:10.989Z,100653.91
2023-04-27T14:36:38.997Z,100648.06
2023-04-27T14:39:08.712Z,100649.66
2023-04-27T14:41:37.125Z,100649.66
2023-04-27T14:44:07.835Z,100643.31
2023-04-27T14:46:38.181Z,100637.06
2023-04-27T14:49:07.553Z,100639.63
2023-04-27T14:51:35.513Z,100631.69
2023-04-27T14:54:04.214Z,100634.53
2023-04-27T14:56:32.265Z,100630.97
2023-04-27T14:59:00.271Z,100640.16
2023-04-27T15:01:28.355Z,100631.34
2023-04-27T15:03:58.052Z,100626.28
2023-04-27T15:06:28.637Z,100636.41
2023-04-27T15:08:56.897Z,100633.41
2023-04-27T15:11:24.911Z,100641.47
2023-04-27T15:13:52.918Z,100643.41
2023-04-27T15:16:20.966Z,100635.44
2023-04-27T15:18:49.055Z,100646.91
2023-04-27T15:21:16.970Z,100642.84
2023-04-27T15:23:46.458Z,100645.66
2023-04-27T15:26:16.507Z,100633.50
2023-04-27T15:28:44.511Z,100657.03
2023-04-27T15:31:12.486Z,100663.53
2023-04-27T15:33:40.732Z,100594.72
2023-04-27T15:36:12.818Z,100667.72
2023-04-27T15:38:40.916Z,100667.25
2023-04-27T15:41:10.472Z,100671.88
2023-04-27T15:43:38.464Z,100686.28
2023-04-27T15:46:07.814Z,100697.25
2023-04-27T15:48:36.488Z,100700.19
2023-04-27T15:51:08.310Z,100708.53
2023-04-27T15:53:38.327Z,100705.84
2023-04-27T15:56:06.788Z,100698.03
2023-04-27T15:58:36.179Z,100697.19
2023-04-27T16:01:04.216Z,100680.59
2023-04-27T16:03:33.411Z,100665.59
2023-04-27T16:06:01.464Z,100672.78
2023-04-27T16:08:30.709Z,100675.72
2023-04-27T16:10:58.697Z,100669.78
2023-04-27T16:13:28.361Z,100684.88
2023-04-27T16:15:57.835Z,100690.38
2023-04-27T16:18:25.899Z,100696.84
2023-04-27T16:20:54.269Z,100695.28
2023-04-27T16:23:22.865Z,100706.88
2023-04-27T16:25:50.942Z,100691.00
2023-04-27T16:28:18.960Z,100707.09
2023-04-27T16:30:47.031Z,100688.66
2023-04-27T16:33:18.465Z,100695.63
2023-04-27T16:35:46.593Z,100703.81
2023-04-27T16:38:14.657Z,100698.56
2023-04-27T16:40:42.701Z,100696.84
2023-04-27T16:43:10.762Z,100702.38
2023-04-27T16:45:41.663Z,100697.00
2023-04-27T16:48:10.348Z,100701.59
2023-04-27T16:50:40.089Z,100700.78
2023-04-27T16:53:09.165Z,100704.44
2023-04-27T16:55:37.457Z,100695.84
2023-04-27T16:58:05.506Z,100698.41
2023-04-27T17:00:33.621Z,100668.31
2023-04-27T17:03:01.877Z,100699.41
2023-04-27T17:05:29.997Z,100690.59
2023-04-27T17:07:59.378Z,100691.84
2023-04-27T17:10:29.217Z,100690.00
2023-04-27T17:12:57.368Z,100691.97
2023-04-27T17:15:26.574Z,100691.97
2023-04-27T17:17:54.684Z,100701.13
2023-04-27T17:20:22.651Z,100696.72
2023-04-27T17:22:51.659Z,100696.72
2023-04-27T17:25:21.295Z,100693.31
2023-04-27T17:27:49.391Z,100697.91
2023-04-27T17:30:17.369Z,100697.19
2023-04-27T17:32:45.439Z,100700.97
2023-04-27T17:35:13.444Z,100707.34
2023-04-27T17:37:41.418Z,100705.75
2023-04-27T17:40:10.509Z,100705.84
2023-04-27T17:42:39.867Z,100709.75
2023-04-27T17:45:09.281Z,100707.94
2023-04-27T17:47:37.462Z,100711.59
2023-04-27T17:50:06.130Z,100707.19
2023-04-27T17:52:34.225Z,100718.03
2023-04-27T17:55:02.262Z,100724.38
2023-04-27T17:57:30.380Z,100726.31
2023-04-27T17:59:59.815Z,100710.94
2023-04-27T18:02:28.036Z,100722.91
2023-04-27T18:04:56.113Z,100726.56
2023-04-27T18:07:24.498Z,100725.69
2023-04-27T18:09:52.484Z,100728.66
2023-04-27T18:12:20.629Z,100735.81
2023-04-27T18:14:50.726Z,100725.44
2023-04-27T18:17:21.012Z,100734.25
2023-04-27T18:20:00.947Z,100736.16
2023-04-27T18:22:36.268Z,100734.69
2023-04-27T18:25:04.558Z,100737.50
2023-04-27T18:27:32.976Z,100737.63
2023-04-27T18:30:01.103Z,100746.50
2023-04-27T18:32:31.192Z,100745.88
2023-04-27T18:34:59.175Z,100745.06
2023-04-27T18:37:27.133Z,100739.81
2023-04-27T18:39:55.074Z,100735.75
2023-04-27T18:42:23.839Z,100745.28
2023-04-27T18:44:54.630Z,100745.28
2023-04-27T18:47:22.772Z,100749.06
2023-04-27T18:49:52.157Z,100749.16
2023-04-27T18:52:21.974Z,100752.19
2023-04-27T18:54:49.985Z,100750.25
2023-04-27T18:57:18.021Z,100755.75
2023-04-27T18:59:46.075Z,100745.97
2023-04-27T19:02:16.831Z,100750.59
2023-04-27T19:04:52.799Z,100754.25
2023-04-27T19:07:26.635Z,100751.69
2023-04-27T19:09:55.260Z,100754.47
2023-04-27T19:12:24.394Z,100744.53
2023-04-27T19:14:52.413Z,100747.44
2023-04-27T19:17:20.621Z,100753.66
2023-04-27T19:19:48.979Z,100763.16
2023-04-27T19:22:19.583Z,100759.50
2023-04-27T19:24:49.120Z,100745.47
2023-04-27T19:27:17.224Z,100760.09
2023-04-27T19:29:53.120Z,100760.75
2023-04-27T19:32:21.653Z,100763.41
2023-04-27T19:34:49.963Z,100766.09
2023-04-27T19:37:17.938Z,100750.75
2023-04-27T19:39:46.257Z,100756.97
2023-04-27T19:42:16.655Z,100756.00
2023-04-27T19:44:44.749Z,100757.94
2023-04-27T19:47:12.673Z,100754.41
2023-04-27T19:49:40.739Z,100767.81
2023-04-27T19:52:08.743Z,100759.16
2023-04-27T19:54:38.298Z,100766.22
2023-04-27T19:57:06.732Z,100766.97
2023-04-27T19:59:36.169Z,100764.38
2023-04-27T20:02:04.408Z,100766.22
2023-04-27T20:04:33.074Z,100769.75
2023-04-27T20:07:02.176Z,100762.69
2023-04-27T20:09:31.445Z,100734.44
2023-04-27T20:11:59.431Z,100766.31
2023-04-27T20:14:29.055Z,100767.19
2023-04-27T20:16:58.468Z,100760.38
2023-04-27T20:19:26.523Z,100762.91
2023-04-27T20:21:54.730Z,100769.13
2023-04-27T20:24:23.434Z,100775.34
2023-04-27T20:26:51.388Z,100750.53
2023-04-27T20:29:19.365Z,100774.50
2023-04-27T20:31:48.497Z,100777.28
2023-04-27T20:34:18.283Z,100772.91
2023-04-27T20:36:46.840Z,100776.31
2023-04-27T20:39:15.139Z,100776.53
2023-04-27T20:41:44.256Z,100777.28
2023-04-27T20:44:13.125Z,100779.13
2023-04-27T20:46:41.540Z,100778.13
2023-04-27T20:49:09.521Z,100774.59
2023-04-27T20:51:40.447Z,100770.09
2023-04-27T20:54:08.379Z,100745.31
2023-04-27T20:56:36.382Z,100779.13
2023-04-27T20:59:04.573Z,100781.03
2023-04-27T21:01:33.938Z,100773.22
2023-04-27T21:04:02.243Z,100777.88
2023-04-27T21:06:30.417Z,100771.75
2023-04-27T21:09:00.444Z,100775.38
2023-04-27T21:11:28.508Z,100781.94
2023-04-27T21:13:56.540Z,100782.09
2023-04-27T21:16:24.598Z,100775.22
2023-04-27T21:18:52.620Z,100785.06
2023-04-27T21:21:22.060Z,100784.34
2023-04-27T21:23:57.130Z,100777.16
2023-04-27T21:26:30.239Z,100780.94
2023-04-27T21:28:58.273Z,100781.38
2023-04-27T21:31:26.315Z,100786.66
2023-04-27T21:33:54.461Z,100785.88
2023-04-27T21:36:22.518Z,100785.06
2023-04-27T21:38:50.862Z,100782.47
2023-04-27T21:41:18.781Z,100782.47
2023-04-27T21:43:48.173Z,100785.28
2023-04-27T21:46:16.244Z,100773.63
2023-04-27T21:48:44.278Z,100780.38
2023-04-27T21:51:12.366Z,100787.19
2023-04-27T21:53:40.404Z,100785.50
2023-04-27T21:56:08.923Z,100764.22
2023-04-27T21:58:36.827Z,100772.91
2023-04-27T22:01:06.577Z,100798.97
2023-04-27T22:03:34.770Z,100792.91
2023-04-27T22:06:02.827Z,100791.06
2023-04-27T22:08:31.036Z,100791.06
2023-04-27T22:11:02.283Z,100796.44
2023-04-27T22:13:30.384Z,100795.69
2023-04-27T22:15:58.284Z,100797.72
2023-04-27T22:18:27.621Z,100788.00
2023-04-27T22:20:55.987Z,100782.22
2023-04-27T22:23:24.092Z,100801.28
2023-04-27T22:25:52.105Z,100799.53
2023-04-27T22:28:20.150Z,100793.69
2023-04-27T22:30:48.204Z,100802.47
2023-04-27T22:33:16.652Z,100802.47
2023-04-27T22:35:46.500Z,100804.28
2023-04-27T22:38:15.258Z,100801.72
2023-04-27T22:40:43.197Z,100809.88
2023-04-27T22:43:11.193Z,100802.69
2023-04-27T22:45:39.238Z,100805.47
2023-04-27T22:48:07.972Z,100801.31
2023-04-27T22:50:36.173Z,100800.13
2023-04-27T22:53:06.055Z,100800.84
2023-04-27T22:55:34.160Z,100801.84
2023-04-27T22:58:02.220Z,100796.69
2023-04-27T23:00:30.790Z,100800.03
2023-04-27T23:02:58.853Z,100799.16
2023-04-27T23:05:27.233Z,100801.84
2023-04-27T23:07:55.303Z,100802.69
2023-04-27T23:10:24.729Z,100801.84
2023-04-27T23:12:54.852Z,100804.75
2023-04-27T23:15:23.901Z,100758.25
2023-04-27T23:17:51.911Z,100793.16
2023-04-27T23:20:28.211Z,100805.47
2023-04-27T23:22:57.478Z,100805.59
2023-04-27T23:25:26.885Z,100800.59
2023-04-27T23:27:54.916Z,100810.09
2023-04-27T23:30:23.213Z,100803.00
2023-04-27T23:32:51.353Z,100788.72
2023-04-27T23:35:19.473Z,100805.81
2023-04-27T23:37:47.547Z,100806.03
2023-04-27T23:40:15.638Z,100801.88
2023-04-27T23:42:45.080Z,100813.13
2023-04-27T23:45:13.433Z,100811.38
2023-04-27T23:47:42.214Z,100814.19
2023-04-27T23:50:10.755Z,100805.38
2023-04-27T23:52:38.752Z,100811.50
2023-04-27T23:55:07.944Z,100797.81
2023-04-27T23:57:35.942Z,100791.81
